createdAt,value
2018-04-22T00:00:03.642Z,1.47
2018-04-22T00:02:32.314Z,3.00
2018-04-22T00:05:00.766Z,2.47
2018-04-22T00:07:29.188Z,2.37
2018-04-22T00:09:57.730Z,2.33
2018-04-22T00:12:26.100Z,2.40
2018-04-22T00:14:54.978Z,2.70
2018-04-22T00:17:23.511Z,2.80
2018-04-22T00:19:52.319Z,2.73
2018-04-22T00:22:20.475Z,1.93
2018-04-22T00:24:49.054Z,2.57
2018-04-22T00:27:17.600Z,2.40
2018-04-22T00:29:46.265Z,2.80
2018-04-22T00:32:14.827Z,2.20
2018-04-22T00:34:43.482Z,2.70
2018-04-22T00:37:11.884Z,2.43
2018-04-22T00:39:40.346Z,2.77
2018-04-22T00:42:08.727Z,2.30
2018-04-22T00:44:37.164Z,2.57
2018-04-22T00:47:05.957Z,2.90
2018-04-22T00:49:34.570Z,2.77
2018-04-22T00:52:03.259Z,2.40
2018-04-22T00:54:31.704Z,2.40
2018-04-22T00:57:00.009Z,2.57
2018-04-22T00:59:28.565Z,2.47
2018-04-22T01:01:56.881Z,2.37
2018-04-22T01:04:25.659Z,2.30
2018-04-22T01:06:54.138Z,2.40
2018-04-22T01:09:22.547Z,2.53
2018-04-22T01:11:51.108Z,3.20
2018-04-22T01:14:19.787Z,3.80
2018-04-22T01:16:48.236Z,4.00
2018-04-22T01:19:16.541Z,4.50
2018-04-22T01:21:45.218Z,4.43
2018-04-22T01:24:13.657Z,3.97
2018-04-22T01:26:42.014Z,4.60
2018-04-22T01:29:10.873Z,4.27
2018-04-22T01:31:39.453Z,2.63
2018-04-22T01:34:07.962Z,3.17
2018-04-22T01:36:36.641Z,3.10
2018-04-22T01:39:05.012Z,2.50
2018-04-22T01:41:33.305Z,2.80
2018-04-22T01:44:01.748Z,1.97
2018-04-22T01:46:30.107Z,2.30
2018-04-22T01:48:58.315Z,2.30
2018-04-22T01:51:26.762Z,2.43
2018-04-22T01:53:55.101Z,2.07
2018-04-22T01:56:23.540Z,2.80
2018-04-22T01:58:51.954Z,2.10
2018-04-22T02:01:20.518Z,2.07
2018-04-22T02:03:48.848Z,2.03
2018-04-22T02:06:17.292Z,2.10
2018-04-22T02:08:45.856Z,2.30
2018-04-22T02:11:14.427Z,2.47
2018-04-22T02:13:43.065Z,2.60
2018-04-22T02:16:11.601Z,2.23
2018-04-22T02:18:40.175Z,2.60
2018-04-22T02:21:08.571Z,2.23
2018-04-22T02:23:37.154Z,2.47
2018-04-22T02:26:05.929Z,2.47
2018-04-22T02:28:34.410Z,2.93
2018-04-22T02:31:02.689Z,2.20
2018-04-22T02:33:30.955Z,2.60
2018-04-22T02:35:59.915Z,2.77
2018-04-22T02:38:28.435Z,4.20
2018-04-22T02:40:57.022Z,4.03
2018-04-22T02:43:25.493Z,5.13
2018-04-22T02:45:53.863Z,6.07
2018-04-22T02:48:22.564Z,5.40
2018-04-22T02:50:51.347Z,5.70
2018-04-22T02:53:19.628Z,5.07
2018-04-22T02:55:48.029Z,4.60
2018-04-22T02:58:16.577Z,5.17
2018-04-22T03:00:44.970Z,5.27
2018-04-22T03:03:13.439Z,5.37
2018-04-22T03:05:42.324Z,5.20
2018-04-22T03:08:10.802Z,4.67
2018-04-22T03:10:39.293Z,5.80
2018-04-22T03:13:07.686Z,4.53
2018-04-22T03:15:36.653Z,5.07
2018-04-22T03:18:04.863Z,4.60
2018-04-22T03:20:33.003Z,3.80
2018-04-22T03:23:01.394Z,3.90
2018-04-22T03:25:29.779Z,3.63
2018-04-22T03:27:58.066Z,3.43
2018-04-22T03:30:26.417Z,3.80
2018-04-22T03:32:54.905Z,3.07
2018-04-22T03:35:23.507Z,3.60
2018-04-22T03:37:51.986Z,3.07
2018-04-22T03:40:20.540Z,3.33
2018-04-22T03:42:48.662Z,2.33
2018-04-22T03:45:17.194Z,3.30
2018-04-22T03:47:45.773Z,2.83
2018-04-22T03:50:14.086Z,3.77
2018-04-22T03:52:42.738Z,5.17
2018-04-22T03:55:11.219Z,4.50
2018-04-22T03:57:39.723Z,5.10
2018-04-22T04:00:08.295Z,4.97
2018-04-22T04:02:36.523Z,4.90
2018-04-22T04:05:04.854Z,4.97
2018-04-22T04:07:33.409Z,4.03
2018-04-22T04:10:01.658Z,3.83
2018-04-22T04:12:30.293Z,4.00
2018-04-22T04:14:58.619Z,5.33
2018-04-22T04:17:27.345Z,4.30
2018-04-22T04:20:07.536Z,4.30
2018-04-22T04:22:46.105Z,6.57
2018-04-22T04:28:28.963Z,7.23
2018-04-22T04:30:57.317Z,7.67
2018-04-22T04:33:25.818Z,8.70
2018-04-22T04:35:54.187Z,8.20
2018-04-22T04:38:22.357Z,5.80
2018-04-22T04:40:50.736Z,4.10
2018-04-22T04:43:19.319Z,4.17
2018-04-22T04:45:47.716Z,4.03
2018-04-22T04:48:15.960Z,4.40
2018-04-22T04:50:44.554Z,5.70
2018-04-22T04:53:12.955Z,5.00
2018-04-22T04:55:41.409Z,4.20
2018-04-22T04:58:09.717Z,4.13
2018-04-22T05:00:37.972Z,3.57
2018-04-22T05:03:06.243Z,3.90
2018-04-22T05:05:34.715Z,4.23
2018-04-22T05:08:03.058Z,4.37
2018-04-22T05:10:31.286Z,6.17
2018-04-22T05:13:00.049Z,5.87
2018-04-22T05:15:28.514Z,7.20
2018-04-22T05:17:57.015Z,7.40
2018-04-22T05:20:25.461Z,8.50
2018-04-22T05:22:53.690Z,8.33
2018-04-22T05:25:21.973Z,9.53
2018-04-22T05:27:50.386Z,11.23
2018-04-22T05:30:18.885Z,10.73
2018-04-22T05:32:47.189Z,9.17
2018-04-22T05:35:15.553Z,12.07
2018-04-22T05:37:44.054Z,7.13
2018-04-22T05:40:12.212Z,6.63
2018-04-22T05:42:41.144Z,4.40
2018-04-22T05:45:09.446Z,3.50
2018-04-22T05:47:37.988Z,4.40
2018-04-22T05:50:06.847Z,4.20
2018-04-22T05:52:35.529Z,5.00
2018-04-22T05:55:03.878Z,4.70
2018-04-22T05:57:32.390Z,4.17
2018-04-22T06:00:00.808Z,4.83
2018-04-22T06:02:29.249Z,4.60
2018-04-22T06:04:57.569Z,3.90
2018-04-22T06:07:26.283Z,4.10
2018-04-22T06:09:54.805Z,5.10
2018-04-22T06:12:23.390Z,3.63
2018-04-22T06:14:51.768Z,3.17
2018-04-22T06:17:20.384Z,4.67
2018-04-22T06:19:49.446Z,3.93
2018-04-22T06:22:18.014Z,7.50
2018-04-22T06:24:46.554Z,4.20
2018-04-22T06:27:14.774Z,3.23
2018-04-22T06:29:43.326Z,4.63
2018-04-22T06:32:11.651Z,3.10
2018-04-22T06:34:40.312Z,3.03
2018-04-22T06:37:08.626Z,4.10
2018-04-22T06:39:37.193Z,4.20
2018-04-22T06:42:05.595Z,3.83
2018-04-22T06:44:33.741Z,4.43
2018-04-22T06:47:02.422Z,3.67
2018-04-22T06:49:30.697Z,3.80
2018-04-22T06:51:58.952Z,5.80
2018-04-22T06:54:27.351Z,2.70
2018-04-22T06:56:55.712Z,2.97
2018-04-22T06:59:24.402Z,3.97
2018-04-22T07:01:52.797Z,3.73
2018-04-22T07:04:21.242Z,3.50
2018-04-22T07:06:49.658Z,3.37
2018-04-22T07:09:18.002Z,3.40
2018-04-22T07:11:46.417Z,3.80
2018-04-22T07:14:15.116Z,3.97
2018-04-22T07:16:43.461Z,3.30
2018-04-22T07:19:11.759Z,2.63
2018-04-22T07:21:40.420Z,2.70
2018-04-22T07:24:09.554Z,3.20
2018-04-22T07:26:39.026Z,3.40
2018-04-22T07:29:07.404Z,3.10
2018-04-22T07:31:35.968Z,3.50
2018-04-22T07:34:04.241Z,2.00
2018-04-22T07:36:32.947Z,3.33
2018-04-22T07:39:01.310Z,3.03
2018-04-22T07:41:29.809Z,2.93
2018-04-22T07:43:58.276Z,3.97
2018-04-22T07:46:26.389Z,3.50
2018-04-22T07:48:54.830Z,3.03
2018-04-22T07:51:22.852Z,2.67
2018-04-22T07:53:50.882Z,3.33
2018-04-22T07:56:18.912Z,2.53
2018-04-22T07:58:47.077Z,2.30
2018-04-22T08:01:15.108Z,2.77
2018-04-22T08:03:43.224Z,2.63
2018-04-22T08:06:11.631Z,2.30
2018-04-22T08:08:40.235Z,3.63
2018-04-22T08:11:08.274Z,2.03
2018-04-22T08:13:36.279Z,2.43
2018-04-22T08:16:04.203Z,2.67
2018-04-22T08:18:32.138Z,2.87
2018-04-22T08:21:00.166Z,3.37
2018-04-22T08:23:28.538Z,2.50
2018-04-22T08:25:56.838Z,2.13
2018-04-22T08:28:24.860Z,2.77
2018-04-22T08:30:53.387Z,3.00
2018-04-22T08:33:21.982Z,2.70
2018-04-22T08:35:50.288Z,3.10
2018-04-22T08:38:18.697Z,1.60
2018-04-22T08:40:47.336Z,1.97
2018-04-22T08:43:15.574Z,2.17
2018-04-22T08:45:44.143Z,2.03
2018-04-22T08:48:12.433Z,1.80
2018-04-22T08:50:40.801Z,3.00
2018-04-22T08:53:09.379Z,2.37
2018-04-22T08:55:37.767Z,1.83
2018-04-22T08:58:06.229Z,1.93
2018-04-22T09:00:34.297Z,1.90
2018-04-22T09:03:02.274Z,1.80
2018-04-22T09:05:30.582Z,1.77
2018-04-22T09:07:58.943Z,2.50
2018-04-22T09:10:27.429Z,5.20
2018-04-22T09:12:55.964Z,4.90
2018-04-22T09:15:24.301Z,2.20
2018-04-22T09:17:52.747Z,1.87
2018-04-22T09:20:20.963Z,1.90
2018-04-22T09:22:49.513Z,1.80
2018-04-22T09:25:18.090Z,1.70
2018-04-22T09:27:46.514Z,1.53
2018-04-22T09:30:15.040Z,1.83
2018-04-22T09:32:43.639Z,1.53
2018-04-22T09:35:11.917Z,1.70
2018-04-22T09:37:40.588Z,1.40
2018-04-22T09:40:09.038Z,1.73
2018-04-22T09:42:37.176Z,1.70
2018-04-22T09:45:05.725Z,1.27
2018-04-22T09:47:33.977Z,3.70
2018-04-22T09:50:02.383Z,1.20
2018-04-22T09:52:30.506Z,1.57
2018-04-22T09:54:58.927Z,1.70
2018-04-22T09:57:27.312Z,1.83
2018-04-22T09:59:55.790Z,2.40
2018-04-22T10:02:29.435Z,2.20
2018-04-22T10:04:57.968Z,1.70
2018-04-22T10:07:26.363Z,1.47
2018-04-22T10:09:55.019Z,1.47
2018-04-22T10:12:23.615Z,2.20
2018-04-22T10:14:51.887Z,1.77
2018-04-22T10:17:20.688Z,1.73
2018-04-22T10:19:49.124Z,2.07
2018-04-22T10:22:17.349Z,1.80
2018-04-22T10:24:45.701Z,1.63
2018-04-22T10:27:14.309Z,2.13
2018-04-22T10:29:42.890Z,1.80
2018-04-22T10:32:11.457Z,1.97
2018-04-22T10:34:39.982Z,2.00
2018-04-22T10:37:08.622Z,2.70
2018-04-22T10:39:37.002Z,1.27
2018-04-22T10:42:05.399Z,1.80
2018-04-22T10:44:33.857Z,1.60
2018-04-22T10:47:02.247Z,1.47
2018-04-22T10:49:30.828Z,1.37
2018-04-22T10:51:59.204Z,1.37
2018-04-22T10:54:27.594Z,1.30
2018-04-22T10:56:56.152Z,1.60
2018-04-22T10:59:24.433Z,1.77
2018-04-22T11:01:52.918Z,1.47
2018-04-22T11:04:21.496Z,1.60
2018-04-22T11:06:49.667Z,1.50
2018-04-22T11:09:17.841Z,1.90
2018-04-22T11:11:46.288Z,1.40
2018-04-22T11:14:14.811Z,1.43
2018-04-22T11:16:43.618Z,1.40
2018-04-22T11:19:12.285Z,1.40
2018-04-22T11:21:40.755Z,1.33
2018-04-22T11:24:09.541Z,1.87
2018-04-22T11:26:37.806Z,1.07
2018-04-22T11:29:06.523Z,1.60
2018-04-22T11:31:34.793Z,2.00
2018-04-22T11:34:02.977Z,1.20
2018-04-22T11:36:31.503Z,1.73
2018-04-22T11:38:59.555Z,2.70
2018-04-22T11:41:27.598Z,1.13
2018-04-22T11:43:55.557Z,1.10
2018-04-22T11:46:23.583Z,1.33
2018-04-22T11:48:51.955Z,0.83
2018-04-22T11:51:20.262Z,1.10
2018-04-22T11:53:49.054Z,1.23
2018-04-22T11:56:17.252Z,1.40
2018-04-22T11:58:45.818Z,1.30
2018-04-22T12:01:14.502Z,1.33
2018-04-22T12:03:42.945Z,1.30
2018-04-22T12:06:11.374Z,1.00
2018-04-22T12:08:39.730Z,1.30
2018-04-22T12:11:08.242Z,0.80
2018-04-22T12:13:36.704Z,0.97
2018-04-22T12:16:05.236Z,0.83
2018-04-22T12:18:33.666Z,1.10
2018-04-22T12:21:02.144Z,0.80
2018-04-22T12:23:30.345Z,0.83
2018-04-22T12:25:58.801Z,1.17
2018-04-22T12:28:27.157Z,1.13
2018-04-22T12:30:55.665Z,1.03
2018-04-22T12:33:24.106Z,1.37
2018-04-22T12:35:52.403Z,1.20
2018-04-22T12:38:20.781Z,1.43
2018-04-22T12:40:49.090Z,0.77
2018-04-22T12:43:17.644Z,1.40
2018-04-22T12:45:45.993Z,1.27
2018-04-22T12:48:14.619Z,2.00
2018-04-22T12:50:43.178Z,1.07
2018-04-22T12:53:11.664Z,1.10
2018-04-22T12:55:40.054Z,0.87
2018-04-22T12:58:08.315Z,1.40
2018-04-22T13:00:36.501Z,1.57
2018-04-22T13:03:04.614Z,0.70
2018-04-22T13:05:32.650Z,1.57
2018-04-22T13:08:00.607Z,0.83
2018-04-22T13:10:28.651Z,1.00
2018-04-22T13:12:56.638Z,1.27
2018-04-22T13:15:24.651Z,1.00
2018-04-22T13:17:52.638Z,0.70
2018-04-22T13:20:20.682Z,1.83
2018-04-22T13:22:48.713Z,1.10
2018-04-22T13:25:16.771Z,0.70
2018-04-22T13:27:44.833Z,1.03
2018-04-22T13:30:12.831Z,1.30
2018-04-22T13:32:41.114Z,1.60
2018-04-22T13:35:09.298Z,1.00
2018-04-22T13:37:37.354Z,1.10
2018-04-22T13:40:05.464Z,1.10
2018-04-22T13:42:33.539Z,1.17
2018-04-22T13:45:01.636Z,1.40
2018-04-22T13:47:29.685Z,1.07
2018-04-22T13:49:57.704Z,0.87
2018-04-22T13:52:25.655Z,0.83
2018-04-22T13:54:53.630Z,0.87
2018-04-22T13:57:21.663Z,1.37
2018-04-22T13:59:49.667Z,0.90
2018-04-22T14:02:17.637Z,0.90
2018-04-22T14:04:45.668Z,1.00
2018-04-22T14:07:13.685Z,0.80
2018-04-22T14:09:41.711Z,0.60
2018-04-22T14:12:09.840Z,1.10
2018-04-22T14:14:37.853Z,1.10
2018-04-22T14:17:06.001Z,1.10
2018-04-22T14:19:33.998Z,0.80
2018-04-22T14:22:02.007Z,1.00
2018-04-22T14:24:29.975Z,0.80
2018-04-22T14:26:58.022Z,0.87
2018-04-22T14:29:26.031Z,1.30
2018-04-22T14:31:54.045Z,0.83
2018-04-22T14:34:22.274Z,1.00
2018-04-22T14:36:50.293Z,1.03
2018-04-22T14:39:18.317Z,1.23
2018-04-22T14:41:46.297Z,1.00
2018-04-22T14:44:26.378Z,1.73
2018-04-22T14:46:54.806Z,0.90
2018-04-22T14:49:23.176Z,1.83
2018-04-22T14:51:52.809Z,1.40
2018-04-22T14:54:21.355Z,1.20
2018-04-22T14:56:49.802Z,1.00
2018-04-22T14:59:18.301Z,0.70
2018-04-22T15:01:46.635Z,1.17
2018-04-22T15:04:15.181Z,1.20
2018-04-22T15:06:43.549Z,1.30
2018-04-22T15:09:11.723Z,0.80
2018-04-22T15:11:40.328Z,0.90
2018-04-22T15:14:08.705Z,1.40
2018-04-22T15:16:36.961Z,1.07
2018-04-22T15:19:05.020Z,1.13
2018-04-22T15:21:33.023Z,1.07
2018-04-22T15:24:01.383Z,1.53
2018-04-22T15:26:29.590Z,0.87
2018-04-22T15:28:58.052Z,1.60
2018-04-22T15:31:26.617Z,1.20
2018-04-22T15:33:55.015Z,1.67
2018-04-22T15:36:23.907Z,1.30
2018-04-22T15:38:52.361Z,1.50
2018-04-22T15:41:21.014Z,1.30
2018-04-22T15:43:49.723Z,1.13
2018-04-22T15:46:18.109Z,1.10
2018-04-22T15:48:46.694Z,1.57
2018-04-22T15:51:14.995Z,1.23
2018-04-22T15:53:43.455Z,1.10
2018-04-22T15:56:11.698Z,1.53
2018-04-22T15:58:40.122Z,1.70
2018-04-22T16:01:08.582Z,1.33
2018-04-22T16:03:36.978Z,1.30
2018-04-22T16:06:05.541Z,1.47
2018-04-22T16:08:33.841Z,1.50
2018-04-22T16:11:02.209Z,1.37
2018-04-22T16:13:30.481Z,1.33
2018-04-22T16:15:58.850Z,1.10
2018-04-22T16:18:27.441Z,1.70
2018-04-22T16:20:55.731Z,1.93
2018-04-22T16:23:24.303Z,1.23
2018-04-22T16:25:52.577Z,1.67
2018-04-22T16:28:21.039Z,1.40
2018-04-22T16:30:49.551Z,1.93
2018-04-22T16:33:18.270Z,2.77
2018-04-22T16:35:47.002Z,1.47
2018-04-22T16:38:15.761Z,2.30
2018-04-22T16:40:44.078Z,2.20
2018-04-22T16:43:12.263Z,2.10
2018-04-22T16:45:40.426Z,1.60
2018-04-22T16:48:08.679Z,1.80
2018-04-22T16:50:37.153Z,2.10
2018-04-22T16:53:05.445Z,2.10
2018-04-22T16:55:33.833Z,1.97
2018-04-22T16:58:02.181Z,1.70
2018-04-22T17:00:30.604Z,1.80
2018-04-22T17:02:58.984Z,1.37
2018-04-22T17:05:27.752Z,2.33
2018-04-22T17:07:56.184Z,1.40
2018-04-22T17:10:24.822Z,2.33
2018-04-22T17:12:53.281Z,2.83
2018-04-22T17:15:21.731Z,2.20
2018-04-22T17:17:50.276Z,2.13
2018-04-22T17:20:18.820Z,1.83
2018-04-22T17:22:47.376Z,1.83
2018-04-22T17:25:15.811Z,1.70
2018-04-22T17:27:44.271Z,2.17
2018-04-22T17:30:12.818Z,1.60
2018-04-22T17:32:41.011Z,1.93
2018-04-22T17:35:09.815Z,2.13
2018-04-22T17:37:38.028Z,2.00
2018-04-22T17:40:06.601Z,2.00
2018-04-22T17:42:35.156Z,3.10
2018-04-22T17:45:03.486Z,4.80
2018-04-22T17:47:31.901Z,2.53
2018-04-22T17:50:00.254Z,3.20
2018-04-22T17:52:28.679Z,2.87
2018-04-22T17:54:56.938Z,3.00
2018-04-22T17:57:25.334Z,2.47
2018-04-22T17:59:53.590Z,2.03
2018-04-22T18:02:22.072Z,1.83
2018-04-22T18:04:50.554Z,2.40
2018-04-22T18:07:19.000Z,3.07
2018-04-22T18:09:47.378Z,2.57
2018-04-22T18:12:15.791Z,4.40
2018-04-22T18:14:44.081Z,3.90
2018-04-22T18:17:12.442Z,5.30
2018-04-22T18:19:41.092Z,3.87
2018-04-22T18:22:09.505Z,3.00
2018-04-22T18:24:37.818Z,4.70
2018-04-22T18:27:06.474Z,5.20
2018-04-22T18:29:35.204Z,5.57
2018-04-22T18:32:03.634Z,5.37
2018-04-22T18:34:31.864Z,5.83
2018-04-22T18:37:00.390Z,5.10
2018-04-22T18:39:28.588Z,5.20
2018-04-22T18:41:57.031Z,5.20
2018-04-22T18:44:25.388Z,4.87
2018-04-22T18:46:53.798Z,4.13
2018-04-22T18:49:22.002Z,5.03
2018-04-22T18:51:50.344Z,3.80
2018-04-22T18:54:18.825Z,3.50
2018-04-22T18:56:47.127Z,3.70
2018-04-22T18:59:15.482Z,2.63
2018-04-22T19:01:43.773Z,3.47
2018-04-22T19:04:12.137Z,2.67
2018-04-22T19:06:40.482Z,2.23
2018-04-22T19:09:08.907Z,2.60
2018-04-22T19:11:37.469Z,2.17
2018-04-22T19:14:05.875Z,2.70
2018-04-22T19:16:34.236Z,3.97
2018-04-22T19:19:02.541Z,3.20
2018-04-22T19:21:30.887Z,3.03
2018-04-22T19:23:59.476Z,3.20
2018-04-22T19:26:27.769Z,2.00
2018-04-22T19:28:56.129Z,2.90
2018-04-22T19:31:24.539Z,3.60
2018-04-22T19:33:52.977Z,3.00
2018-04-22T19:36:21.338Z,2.80
2018-04-22T19:38:49.849Z,1.80
2018-04-22T19:41:18.217Z,1.90
2018-04-22T19:43:46.705Z,2.10
2018-04-22T19:46:15.212Z,2.20
2018-04-22T19:48:43.927Z,2.20
2018-04-22T19:51:12.265Z,2.27
2018-04-22T19:53:40.817Z,1.50
2018-04-22T19:56:09.133Z,1.80
2018-04-22T19:58:37.574Z,1.23
2018-04-22T20:01:05.782Z,2.33
2018-04-22T20:03:34.253Z,1.90
2018-04-22T20:06:02.748Z,2.10
2018-04-22T20:08:31.302Z,2.40
2018-04-22T20:10:59.849Z,2.23
2018-04-22T20:13:28.476Z,1.87
2018-04-22T20:15:56.845Z,2.87
2018-04-22T20:18:25.317Z,1.60
2018-04-22T20:20:53.526Z,2.97
2018-04-22T20:23:22.073Z,1.70
2018-04-22T20:25:50.543Z,1.90
2018-04-22T20:28:18.845Z,1.60
2018-04-22T20:30:47.099Z,1.30
2018-04-22T20:33:15.294Z,2.10
2018-04-22T20:35:43.548Z,1.63
2018-04-22T20:38:11.950Z,1.50
2018-04-22T20:40:40.513Z,1.90
2018-04-22T20:43:08.759Z,1.50
2018-04-22T20:45:37.490Z,1.93
2018-04-22T20:48:05.746Z,2.20
2018-04-22T20:50:34.143Z,2.03
2018-04-22T20:53:02.733Z,1.60
2018-04-22T20:55:31.195Z,1.40
2018-04-22T20:57:59.741Z,1.70
2018-04-22T21:00:28.149Z,1.73
2018-04-22T21:02:56.448Z,1.80
2018-04-22T21:05:24.606Z,1.90
2018-04-22T21:07:52.896Z,1.77
2018-04-22T21:10:21.355Z,1.83
2018-04-22T21:12:49.937Z,1.73
2018-04-22T21:15:18.537Z,1.50
2018-04-22T21:17:47.001Z,4.27
2018-04-22T21:20:16.219Z,1.93
2018-04-22T21:22:44.667Z,1.80
2018-04-22T21:25:12.988Z,1.70
2018-04-22T21:27:41.642Z,1.83
2018-04-22T21:30:10.013Z,2.20
2018-04-22T21:32:38.314Z,1.67
2018-04-22T21:35:06.698Z,1.83
2018-04-22T21:37:34.957Z,1.80
2018-04-22T21:40:03.221Z,2.50
2018-04-22T21:42:31.555Z,2.17
2018-04-22T21:44:59.983Z,1.30
2018-04-22T21:47:28.671Z,1.60
2018-04-22T21:49:57.212Z,2.30
2018-04-22T21:52:25.638Z,2.43
2018-04-22T21:54:54.005Z,1.80
2018-04-22T21:57:22.346Z,2.60
2018-04-22T21:59:50.957Z,2.20
2018-04-22T22:02:19.338Z,2.60
2018-04-22T22:04:47.836Z,2.20
2018-04-22T22:07:16.198Z,2.60
2018-04-22T22:09:44.462Z,2.50
2018-04-22T22:12:12.870Z,2.30
2018-04-22T22:14:41.042Z,2.20
2018-04-22T22:17:09.506Z,2.70
2018-04-22T22:19:37.721Z,2.10
2018-04-22T22:22:06.274Z,2.43
2018-04-22T22:24:34.956Z,2.43
2018-04-22T22:27:03.600Z,2.43
2018-04-22T22:29:31.798Z,2.67
2018-04-22T22:32:00.287Z,2.90
2018-04-22T22:34:28.683Z,5.50
2018-04-22T22:36:57.038Z,5.00
2018-04-22T22:39:25.754Z,3.77
2018-04-22T22:41:54.237Z,2.77
2018-04-22T22:44:22.890Z,2.47
2018-04-22T22:46:51.220Z,2.97
2018-04-22T22:49:19.883Z,3.10
2018-04-22T22:51:48.223Z,2.30
2018-04-22T22:54:16.532Z,2.40
2018-04-22T22:56:44.986Z,2.00
2018-04-22T22:59:13.568Z,1.83
2018-04-22T23:01:41.967Z,2.63
2018-04-22T23:04:10.323Z,1.90
2018-04-22T23:06:38.630Z,2.40
2018-04-22T23:09:06.968Z,2.30
2018-04-22T23:11:35.442Z,2.40
2018-04-22T23:14:03.958Z,1.90
2018-04-22T23:16:32.417Z,2.27
2018-04-22T23:19:01.103Z,2.20
2018-04-22T23:21:29.389Z,2.60
2018-04-22T23:23:57.884Z,2.20
2018-04-22T23:26:26.348Z,2.80
2018-04-22T23:28:54.846Z,2.37
2018-04-22T23:31:23.298Z,1.93
2018-04-22T23:33:51.679Z,1.70
2018-04-22T23:36:19.969Z,1.90
2018-04-22T23:38:48.225Z,3.00
2018-04-22T23:41:16.734Z,2.20
2018-04-22T23:43:45.305Z,2.10
2018-04-22T23:46:13.553Z,2.53
2018-04-22T23:48:41.829Z,2.43
2018-04-22T23:51:10.429Z,2.73
2018-04-22T23:53:38.509Z,2.40
2018-04-22T23:56:06.837Z,3.10
2018-04-22T23:58:35.269Z,3.23
